createdAt,value
2022-12-08T00:02:03.596Z,32.60
2022-12-08T00:07:05.587Z,35.20
2022-12-08T00:12:12.819Z,36.72
2022-12-08T00:17:16.204Z,36.70
2022-12-08T00:22:17.948Z,37.70
2022-12-08T00:27:20.964Z,32.15
2022-12-08T00:32:22.757Z,35.13
2022-12-08T00:37:24.554Z,35.63
2022-12-08T00:42:27.616Z,30.70
2022-12-08T00:47:29.395Z,40.38
2022-12-08T00:52:31.137Z,36.97
2022-12-08T00:57:34.198Z,39.58
2022-12-08T01:02:35.927Z,36.92
2022-12-08T01:07:37.701Z,37.17
2022-12-08T01:12:44.537Z,40.47
2022-12-08T01:17:46.391Z,38.10
2022-12-08T01:22:48.149Z,38.22
2022-12-08T01:27:51.989Z,37.22
2022-12-08T01:32:53.791Z,40.83
2022-12-08T01:37:55.504Z,40.88
2022-12-08T01:42:58.583Z,40.12
2022-12-08T01:48:05.508Z,41.45
2022-12-08T01:53:10.846Z,42.25
2022-12-08T01:58:18.333Z,40.90
2022-12-08T02:03:25.247Z,37.08
2022-12-08T02:08:28.246Z,33.50
2022-12-08T02:13:31.448Z,43.40
2022-12-08T02:19:14.733Z,40.08
2022-12-08T02:24:19.766Z,47.47
2022-12-08T02:30:08.052Z,34.42
2022-12-08T02:35:14.360Z,43.53
2022-12-08T02:40:21.222Z,34.40
2022-12-08T02:45:26.690Z,42.30
2022-12-08T02:50:29.834Z,38.85
2022-12-08T02:55:40.178Z,35.42
2022-12-08T03:01:00.475Z,35.95
2022-12-08T03:06:15.327Z,43.42
2022-12-08T03:11:21.185Z,37.80
2022-12-08T03:16:26.114Z,36.28
2022-12-08T03:21:31.311Z,37.10
2022-12-08T03:26:38.674Z,35.70
2022-12-08T03:31:45.693Z,41.35
2022-12-08T03:36:48.772Z,35.35
2022-12-08T03:41:50.550Z,40.78
2022-12-08T03:46:52.234Z,40.30
2022-12-08T03:51:55.437Z,32.40
2022-12-08T03:56:57.141Z,37.13
2022-12-08T04:01:58.910Z,36.58
2022-12-08T04:07:02.120Z,34.15
2022-12-08T04:12:04.217Z,38.38
2022-12-08T04:17:05.965Z,35.25
2022-12-08T04:22:09.115Z,30.33
2022-12-08T04:27:10.872Z,40.05
2022-12-08T04:32:12.590Z,31.73
2022-12-08T04:37:15.710Z,36.30
2022-12-08T04:42:17.401Z,34.53
2022-12-08T04:47:19.198Z,34.28
2022-12-08T04:52:22.611Z,34.78
2022-12-08T04:57:24.367Z,37.42
2022-12-08T05:02:26.371Z,32.20
2022-12-08T05:07:29.482Z,31.58
2022-12-08T05:12:31.189Z,33.47
2022-12-08T05:17:32.874Z,35.30
2022-12-08T05:22:36.094Z,33.78
2022-12-08T05:27:37.876Z,36.00
2022-12-08T05:32:39.636Z,33.22
2022-12-08T05:37:42.871Z,36.38
2022-12-08T05:42:44.573Z,35.40
2022-12-08T05:47:46.325Z,36.08
2022-12-08T05:52:49.459Z,33.53
2022-12-08T05:57:51.378Z,36.88
2022-12-08T06:02:53.356Z,42.15
2022-12-08T06:07:56.542Z,35.47
2022-12-08T06:12:58.364Z,39.33
2022-12-08T06:18:00.132Z,39.42
2022-12-08T06:23:03.209Z,39.10
2022-12-08T06:28:05.640Z,43.42
2022-12-08T06:33:07.353Z,41.75
2022-12-08T06:38:10.455Z,45.72
2022-12-08T06:43:12.150Z,39.35
2022-12-08T06:48:13.840Z,39.00
2022-12-08T06:53:18.598Z,42.28
2022-12-08T06:58:20.380Z,39.97
2022-12-08T07:03:22.036Z,42.83
2022-12-08T07:08:25.186Z,45.30
2022-12-08T07:13:26.958Z,36.95
2022-12-08T07:18:28.703Z,45.33
2022-12-08T07:23:31.721Z,38.08
2022-12-08T07:28:34.249Z,40.28
2022-12-08T07:33:35.949Z,39.22
2022-12-08T07:38:39.455Z,38.95
2022-12-08T07:43:41.946Z,38.17
2022-12-08T07:48:43.849Z,39.92
2022-12-08T07:53:54.191Z,40.10
2022-12-08T07:58:56.659Z,36.25
2022-12-08T08:04:01.126Z,41.45
2022-12-08T08:09:04.536Z,36.03
2022-12-08T08:14:06.228Z,36.65
2022-12-08T08:19:07.900Z,41.37
2022-12-08T08:24:11.245Z,30.60
2022-12-08T08:29:12.888Z,28.90
2022-12-08T08:34:14.973Z,34.05
2022-12-08T08:39:18.051Z,31.83
2022-12-08T08:44:19.784Z,33.45
2022-12-08T08:49:21.538Z,30.60
2022-12-08T08:54:24.740Z,32.70
2022-12-08T08:59:27.134Z,33.40
2022-12-08T09:04:28.896Z,32.35
2022-12-08T09:09:31.996Z,33.08
2022-12-08T09:14:34.107Z,31.08
2022-12-08T09:19:35.891Z,32.47
2022-12-08T09:24:39.749Z,38.45
2022-12-08T09:29:41.733Z,28.95
2022-12-08T09:34:47.605Z,33.45
2022-12-08T09:39:53.667Z,31.75
2022-12-08T09:45:02.274Z,31.48
2022-12-08T09:50:11.115Z,34.90
2022-12-08T09:55:20.615Z,34.47
2022-12-08T10:00:22.609Z,31.48
2022-12-08T10:05:26.110Z,30.88
2022-12-08T10:10:37.994Z,28.75
2022-12-08T10:15:44.186Z,33.55
2022-12-08T10:20:47.618Z,32.78
2022-12-08T10:25:55.019Z,27.73
2022-12-08T10:30:56.856Z,27.45
2022-12-08T10:35:59.863Z,31.08
2022-12-08T10:41:06.969Z,30.98
2022-12-08T10:46:11.833Z,25.88
2022-12-08T10:51:23.700Z,27.00
2022-12-08T10:56:28.383Z,23.17
2022-12-08T11:01:36.360Z,26.48
2022-12-08T11:06:39.760Z,30.20
2022-12-08T11:11:48.886Z,30.50
2022-12-08T11:16:51.462Z,26.83
2022-12-08T11:21:53.753Z,25.48
2022-12-08T11:27:00.798Z,29.00
2022-12-08T11:32:07.384Z,27.70
2022-12-08T11:37:18.614Z,27.73
2022-12-08T11:42:26.396Z,31.20
2022-12-08T11:47:36.629Z,29.90
2022-12-08T11:52:47.776Z,29.87
2022-12-08T11:57:51.869Z,27.30
2022-12-08T12:03:01.225Z,24.33
2022-12-08T12:08:13.675Z,22.60
2022-12-08T12:13:41.615Z,28.27
2022-12-08T12:18:46.714Z,19.40
2022-12-08T12:23:53.624Z,21.10
2022-12-08T12:29:01.490Z,21.62
2022-12-08T12:34:10.755Z,18.05
2022-12-08T12:39:14.172Z,19.95
2022-12-08T12:44:36.067Z,21.48
2022-12-08T12:50:06.003Z,17.30
2022-12-08T12:55:26.774Z,23.27
2022-12-08T13:00:30.035Z,21.20
2022-12-08T13:05:35.568Z,18.62
2022-12-08T13:10:39.242Z,18.10
2022-12-08T13:15:49.100Z,17.33
2022-12-08T13:20:52.944Z,17.67
2022-12-08T13:26:14.532Z,18.92
2022-12-08T13:31:36.390Z,22.25
2022-12-08T13:36:44.032Z,19.15
2022-12-08T13:41:53.341Z,19.65
2022-12-08T13:57:49.546Z,16.25
2022-12-08T14:02:56.991Z,14.93
2022-12-08T14:07:58.829Z,14.75
2022-12-08T14:13:03.029Z,14.30
2022-12-08T14:18:21.075Z,14.30
2022-12-08T14:23:22.886Z,15.02
2022-12-08T14:28:25.187Z,14.87
2022-12-08T14:33:28.395Z,14.15
2022-12-08T14:38:30.745Z,14.68
2022-12-08T14:43:32.871Z,15.50
2022-12-08T14:48:42.152Z,14.10
2022-12-08T14:53:46.242Z,15.50
2022-12-08T14:58:50.708Z,23.43
2022-12-08T15:03:59.704Z,19.25
2022-12-08T15:09:15.501Z,23.23
2022-12-08T15:14:33.179Z,24.45
2022-12-08T15:19:36.362Z,23.73
2022-12-08T15:24:38.085Z,26.50
2022-12-08T15:29:39.877Z,24.48
2022-12-08T15:34:43.119Z,25.85
2022-12-08T15:39:45.059Z,23.62
2022-12-08T15:44:46.926Z,22.98
2022-12-08T15:49:51.369Z,26.62
2022-12-08T15:54:53.063Z,27.30
2022-12-08T15:59:54.824Z,26.90
2022-12-08T16:05:40.342Z,27.35
2022-12-08T16:10:24.619Z,20.35
2022-12-08T16:27:21.884Z,26.48
2022-12-08T16:31:48.329Z,30.15
2022-12-08T16:37:11.467Z,30.35
2022-12-08T16:42:14.055Z,28.48
2022-12-08T16:47:23.120Z,26.80
2022-12-08T16:52:26.344Z,29.58
2022-12-08T16:57:28.358Z,30.27
2022-12-08T17:02:30.081Z,26.50
2022-12-08T17:07:34.426Z,28.73
2022-12-08T17:12:36.297Z,29.40
2022-12-08T17:17:38.786Z,27.37
2022-12-08T17:22:45.321Z,27.67
2022-12-08T17:27:47.742Z,27.37
2022-12-08T17:32:49.481Z,28.90
2022-12-08T17:37:52.573Z,33.88
2022-12-08T17:42:54.339Z,29.00
2022-12-08T17:47:56.123Z,24.15
2022-12-08T17:52:59.232Z,31.45
2022-12-08T17:58:01.329Z,27.23
2022-12-08T18:03:03.242Z,29.73
2022-12-08T18:08:06.511Z,34.70
2022-12-08T18:13:08.718Z,29.55
2022-12-08T18:18:10.770Z,25.67
2022-12-08T18:23:16.767Z,30.88
2022-12-08T18:28:24.546Z,30.85
2022-12-08T18:33:29.803Z,28.62
2022-12-08T18:38:34.042Z,31.95
2022-12-08T18:43:38.875Z,34.08
2022-12-08T18:48:43.991Z,30.30
2022-12-08T18:54:02.475Z,32.25
2022-12-08T18:59:12.493Z,71.65
2022-12-08T19:04:31.830Z,35.78
2022-12-08T19:09:35.999Z,37.22
2022-12-08T19:14:38.084Z,31.30
2022-12-08T19:19:40.141Z,32.05
2022-12-08T19:24:43.486Z,35.28
2022-12-08T19:36:45.435Z,30.70
2022-12-08T19:41:48.750Z,32.53
2022-12-08T19:46:50.611Z,29.65
2022-12-08T19:51:52.626Z,31.95
2022-12-08T19:56:56.768Z,32.67
2022-12-08T20:01:58.899Z,25.80
2022-12-08T20:07:00.794Z,30.20
2022-12-08T20:12:04.467Z,36.80
2022-12-08T20:17:06.243Z,31.80
2022-12-08T20:22:08.123Z,32.90
2022-12-08T20:27:17.902Z,29.60
2022-12-08T20:32:21.797Z,34.17
2022-12-08T20:37:23.800Z,33.88
2022-12-08T20:42:27.216Z,28.35
2022-12-08T20:47:37.980Z,29.98
2022-12-08T20:52:39.911Z,32.78
2022-12-08T20:57:43.344Z,33.58
2022-12-08T21:02:49.787Z,32.13
2022-12-08T21:07:52.898Z,30.60
2022-12-08T21:12:56.380Z,33.58
2022-12-08T21:17:58.243Z,40.40
2022-12-08T21:23:00.995Z,32.83
2022-12-08T21:28:04.710Z,36.75
2022-12-08T21:33:13.411Z,32.58
2022-12-08T21:38:15.233Z,33.40
2022-12-08T21:43:18.485Z,35.72
2022-12-08T21:48:20.575Z,37.83
2022-12-08T21:53:25.440Z,37.50
2022-12-08T21:58:28.885Z,40.85
2022-12-08T22:03:30.863Z,36.92
2022-12-08T22:08:33.138Z,45.88
2022-12-08T22:13:38.032Z,39.03
2022-12-08T22:23:41.695Z,38.90
2022-12-08T22:28:44.855Z,36.72
2022-12-08T22:33:47.197Z,41.75
2022-12-08T22:38:49.265Z,38.35
2022-12-08T22:43:52.375Z,34.40
2022-12-08T22:48:55.171Z,40.63
2022-12-08T22:53:56.975Z,42.90
2022-12-08T22:59:00.054Z,46.05
2022-12-08T23:04:02.193Z,42.97
2022-12-08T23:09:05.329Z,41.40
2022-12-08T23:14:08.486Z,42.80
2022-12-08T23:19:10.337Z,45.65
2022-12-08T23:24:12.148Z,43.20
2022-12-08T23:29:15.547Z,35.40
2022-12-08T23:34:17.470Z,42.67
2022-12-08T23:39:19.236Z,40.55
2022-12-08T23:44:22.569Z,36.47
2022-12-08T23:49:24.307Z,40.47
2022-12-08T23:54:26.202Z,37.22
2022-12-08T23:59:30.681Z,38.50
